Time;durP1;ratioP1;P1;durP2;ratioP2;P2;SDS_P1;SDS_P2;PMS_P1;PMS_P2;Temp;Humidity;BMP_temperature;BMP_pressure;BME280_temperature;BME280_humidity;BME280_pressure;Samples;Min_cycle;Max_cycle;Signal;HPM_P1;HPM_P2
2022/04/30 00:01:19;;;;;;;11.40;8.43;;;;;;;6.17;73.34;102676.13;4989516;28;20033;-84
2022/04/30 00:03:45;;;;;;;12.02;7.80;;;;;;;6.12;73.77;102672.63;4987460;28;20076;-84
2022/04/30 00:06:11;;;;;;;13.05;7.85;;;;;;;6.08;73.86;102676.16;4978857;28;20046;-83
2022/04/30 00:08:36;;;;;;;10.85;7.78;;;;;;;6.03;73.89;102675.31;4987570;28;20050;-84
2022/04/30 00:11:03;;;;;;;12.15;7.65;;;;;;;5.96;74.20;102677.06;4978990;28;20222;-84
2022/04/30 00:13:28;;;;;;;15.90;8.88;;;;;;;5.91;74.33;102670.88;4966142;28;20034;-85
2022/04/30 00:15:53;;;;;;;13.15;7.63;;;;;;;5.88;74.60;102677.94;4975877;28;20032;-85
2022/04/30 00:18:18;;;;;;;12.45;7.63;;;;;;;5.88;74.67;102686.75;4988511;28;20466;-84
2022/04/30 00:20:47;;;;;;;11.02;8.20;;;;;;;5.80;74.34;102670.00;4985748;28;20034;-84
2022/04/30 00:23:22;;;;;;;13.63;8.02;;;;;;;5.82;74.52;102677.97;4985306;28;20093;-84
2022/04/30 00:25:52;;;;;;;14.98;7.95;;;;;;;5.78;74.44;102674.44;4980673;28;20026;-83
2022/04/30 00:28:20;;;;;;;14.32;7.57;;;;;;;5.75;74.74;102677.06;4962281;28;20345;-85
2022/04/30 00:30:45;;;;;;;8.65;7.00;;;;;;;5.74;74.90;102683.25;4987018;28;20034;-84
2022/04/30 00:33:11;;;;;;;10.40;7.05;;;;;;;5.71;74.92;102675.31;4986191;28;20034;-85
2022/04/30 00:35:37;;;;;;;13.02;7.55;;;;;;;5.72;74.93;102679.72;4987954;28;20509;-85
2022/04/30 00:38:02;;;;;;;12.63;7.45;;;;;;;5.70;74.84;102676.22;4992102;28;20324;-85
2022/04/30 00:40:28;;;;;;;11.40;6.85;;;;;;;5.61;74.98;102663.91;4991425;28;20026;-85
2022/04/30 00:42:53;;;;;;;10.95;7.07;;;;;;;5.60;75.54;102674.44;4981945;28;20030;-85
2022/04/30 00:45:20;;;;;;;11.05;6.85;;;;;;;5.52;75.61;102663.91;4987147;28;20034;-85
2022/04/30 00:47:46;;;;;;;8.90;6.60;;;;;;;5.54;75.48;102659.50;4984485;28;20022;-85
2022/04/30 00:50:16;;;;;;;8.75;6.10;;;;;;;5.53;75.49;102659.50;4989656;28;20049;-85
2022/04/30 00:52:43;;;;;;;8.40;6.22;;;;;;;5.48;75.67;102662.16;4991102;28;20037;-85
2022/04/30 00:55:09;;;;;;;12.70;6.20;;;;;;;5.44;75.75;102650.72;4979565;28;20027;-85
2022/04/30 00:57:36;;;;;;;8.68;5.95;;;;;;;5.43;75.75;102659.53;4989497;28;20476;-85
2022/04/30 01:00:04;;;;;;;11.70;6.53;;;;;;;5.44;75.77;102656.00;4990680;28;20030;-85
2022/04/30 01:02:32;;;;;;;10.13;5.85;;;;;;;5.44;75.87;102655.13;4972337;28;20039;-85
2022/04/30 01:04:59;;;;;;;8.95;5.97;;;;;;;5.39;75.94;102649.84;4984403;28;20041;-85
2022/04/30 01:07:26;;;;;;;9.85;6.43;;;;;;;5.31;76.07;102635.75;4981279;28;20121;-85
2022/04/30 01:09:53;;;;;;;8.63;6.00;;;;;;;5.34;76.19;102645.41;4971983;28;20034;-85
2022/04/30 01:12:20;;;;;;;8.05;5.90;;;;;;;5.31;76.68;102651.59;4986615;28;20492;-85
2022/04/30 01:14:47;;;;;;;10.30;6.10;;;;;;;5.30;76.25;102646.31;4977808;28;20042;-85
2022/04/30 01:17:12;;;;;;;7.35;5.60;;;;;;;5.26;76.38;102650.69;4988247;28;20149;-85
2022/04/30 01:19:41;;;;;;;8.25;5.30;;;;;;;5.23;76.45;102651.59;4984230;28;20121;-85
2022/04/30 01:22:28;;;;;;;9.98;6.57;;;;;;;5.21;76.07;102648.06;4981064;28;20041;-85
2022/04/30 01:24:56;;;;;;;8.80;5.40;;;;;;;5.15;76.57;102655.13;4977686;28;20039;-84
2022/04/30 01:27:25;;;;;;;9.77;5.55;;;;;;;5.15;77.10;102649.84;4975726;28;20117;-84
2022/04/30 01:29:51;;;;;;;7.32;5.63;;;;;;;5.09;77.24;102645.41;4988204;28;20038;-85
2022/04/30 01:37:44;;;;;;;9.82;5.65;;;;;;;5.07;77.57;102641.03;4982199;28;20056;-84
2022/04/30 01:40:11;;;;;;;9.98;5.38;;;;;;;5.05;77.54;102643.66;4976710;28;20484;-85
2022/04/30 01:42:47;;;;;;;9.43;5.78;;;;;;;5.08;77.09;102648.94;4981665;28;20114;-85
2022/04/30 01:45:14;;;;;;;10.20;5.45;;;;;;;5.05;77.61;102641.00;4985741;28;20100;-85
2022/04/30 01:47:41;;;;;;;7.65;5.20;;;;;;;5.01;77.77;102641.88;4982273;28;20034;-85
2022/04/30 01:50:08;;;;;;;8.55;5.22;;;;;;;4.97;77.82;102641.03;4981178;28;20140;-85
2022/04/30 01:52:33;;;;;;;9.88;5.88;;;;;;;4.94;78.05;102637.50;4985090;28;20126;-84
2022/04/30 01:54:59;;;;;;;7.55;5.78;;;;;;;4.94;78.32;102637.50;4985933;28;20104;-85
2022/04/30 01:57:28;;;;;;;10.55;5.40;;;;;;;4.92;78.37;102633.97;4990035;28;20145;-85
2022/04/30 01:59:54;;;;;;;8.07;5.78;;;;;;;4.91;78.29;102624.28;4975931;28;20088;-85
2022/04/30 02:02:24;;;;;;;8.02;5.68;;;;;;;4.85;78.86;102627.81;4984558;28;20064;-85
2022/04/30 02:04:55;;;;;;;7.70;5.00;;;;;;;4.85;78.89;102627.81;4977536;28;20032;-85
2022/04/30 02:07:23;;;;;;;9.57;5.72;;;;;;;4.83;79.09;102626.91;4981202;28;20404;-85
2022/04/30 02:09:53;;;;;;;9.10;5.57;;;;;;;4.81;79.26;102630.41;4987949;28;20069;-84
2022/04/30 02:12:19;;;;;;;10.05;5.53;;;;;;;4.73;79.30;102627.81;4982634;28;20037;-85
2022/04/30 02:14:52;;;;;;;10.88;5.40;;;;;;;4.71;79.46;102626.91;4979845;28;20023;-85
2022/04/30 02:17:20;;;;;;;9.73;5.40;;;;;;;4.66;79.92;102620.75;4975092;28;20030;-85
2022/04/30 02:22:31;;;;;;;9.57;5.28;;;;;;;4.63;80.10;102620.72;4982812;28;20049;-85
2022/04/30 02:25:00;;;;;;;11.05;5.72;;;;;;;4.57;80.00;102626.88;4985040;28;20100;-85
2022/04/30 02:27:27;;;;;;;8.63;5.97;;;;;;;4.50;80.69;102618.06;4979469;28;20051;-85
2022/04/30 02:29:52;;;;;;;9.52;5.40;;;;;;;4.48;81.11;102617.19;4988432;28;20057;-85
2022/04/30 02:32:18;;;;;;;11.57;5.88;;;;;;;4.49;81.10;102621.56;4980061;28;20469;-85
2022/04/30 02:34:43;;;;;;;10.90;5.95;;;;;;;4.45;81.33;102622.44;4972770;28;20023;-84
2022/04/30 02:37:13;;;;;;;9.35;6.38;;;;;;;4.43;81.24;102618.94;4981534;28;20077;-85
2022/04/30 02:39:38;;;;;;;10.45;5.93;;;;;;;4.40;81.49;102612.78;4985902;28;20583;-84
2022/04/30 02:42:04;;;;;;;11.10;6.43;;;;;;;4.35;81.89;102609.25;4981465;28;20053;-85
2022/04/30 02:44:29;;;;;;;12.65;7.03;;;;;;;4.36;81.81;102608.38;4980295;28;20043;-85
2022/04/30 02:46:55;;;;;;;10.82;5.50;;;;;;;4.34;81.54;102613.63;4978316;28;20443;-85
2022/04/30 02:49:21;;;;;;;12.48;6.53;;;;;;;4.32;81.98;102610.09;4981989;28;20166;-85
2022/04/30 02:51:46;;;;;;;11.88;7.10;;;;;;;4.31;82.14;102615.38;4977078;28;20073;-85
2022/04/30 02:54:13;;;;;;;11.77;6.50;;;;;;;4.29;82.30;102612.72;4975349;28;20550;-85
2022/04/30 02:56:38;;;;;;;11.50;6.60;;;;;;;4.24;82.22;102602.16;4974781;28;20092;-85
2022/04/30 03:01:48;;;;;;;10.20;6.18;;;;;;;4.23;82.57;102608.31;4973511;28;20497;-85
2022/04/30 03:04:13;;;;;;;9.73;6.68;;;;;;;4.22;82.31;102593.38;4954086;28;20481;-85
2022/04/30 03:06:38;;;;;;;11.98;6.80;;;;;;;4.20;82.53;102607.44;4978430;28;20054;-85
2022/04/30 03:09:04;;;;;;;12.48;7.00;;;;;;;4.14;83.04;102600.38;4979371;28;20037;-85
2022/04/30 03:11:31;;;;;;;11.95;7.03;;;;;;;4.19;82.98;102605.69;4972344;28;20034;-85
2022/04/30 03:13:57;;;;;;;11.98;7.15;;;;;;;4.16;83.01;102608.28;4970583;28;20574;-85
2022/04/30 03:21:52;;;;;;;14.23;6.85;;;;;;;4.03;83.21;102610.00;4973821;28;20575;-84
2022/04/30 03:24:18;;;;;;;11.57;7.07;;;;;;;4.05;83.31;102612.63;4969014;28;20027;-85
2022/04/30 03:26:45;;;;;;;12.07;7.40;;;;;;;4.00;83.83;102612.59;4978152;28;20049;-84
2022/04/30 03:29:11;;;;;;;14.35;7.78;;;;;;;3.97;83.87;102605.59;4986813;28;20389;-85
2022/04/30 03:31:39;;;;;;;14.20;8.02;;;;;;;3.96;84.16;102606.44;4975278;28;20088;-85
2022/04/30 03:34:07;;;;;;;13.20;7.47;;;;;;;3.92;84.85;102604.66;4975758;28;20109;-84
2022/04/30 03:36:33;;;;;;;12.02;7.60;;;;;;;3.92;84.82;102601.16;4976464;28;20500;-85
2022/04/30 03:38:58;;;;;;;18.25;8.40;;;;;;;3.90;84.38;102598.53;4981437;28;20035;-84
2022/04/30 03:41:23;;;;;;;15.27;8.00;;;;;;;3.92;84.50;102598.50;4981242;28;20097;-84
2022/04/30 03:43:48;;;;;;;15.73;7.85;;;;;;;3.92;84.95;102595.88;4975200;28;20030;-85
2022/04/30 03:46:14;;;;;;;14.88;8.00;;;;;;;3.86;84.84;102588.84;4965685;28;20475;-85
2022/04/30 03:48:39;;;;;;;12.40;7.90;;;;;;;3.88;84.94;102592.34;4984226;28;20022;-84
2022/04/30 03:51:05;;;;;;;12.80;8.05;;;;;;;3.87;85.15;102587.97;4984486;28;20113;-85
2022/04/30 03:53:31;;;;;;;15.32;8.48;;;;;;;3.85;85.44;102589.72;4980695;28;20392;-84
2022/04/30 03:55:57;;;;;;;15.38;8.32;;;;;;;3.90;85.47;102592.38;4981190;28;20022;-85
2022/04/30 03:58:22;;;;;;;16.27;8.55;;;;;;;3.88;85.43;102592.34;4988292;28;20373;-84
2022/04/30 04:00:47;;;;;;;14.25;8.13;;;;;;;3.85;85.46;102595.00;4982122;28;20478;-85
2022/04/30 04:03:13;;;;;;;15.70;8.82;;;;;;;3.84;85.52;102589.69;4980205;28;20513;-85
2022/04/30 04:05:38;;;;;;;15.20;8.52;;;;;;;3.83;85.27;102587.94;4983627;28;20026;-85
2022/04/30 04:08:12;;;;;;;16.25;9.38;;;;;;;3.81;85.69;102593.22;4981919;28;20081;-84
2022/04/30 04:10:38;;;;;;;19.13;9.32;;;;;;;3.83;85.75;102595.84;4989923;28;20480;-84
2022/04/30 04:18:31;;;;;;;16.15;8.75;;;;;;;3.78;86.26;102601.09;4989198;28;20149;-85
2022/04/30 04:20:56;;;;;;;16.25;9.60;;;;;;;3.74;86.32;102599.31;4975675;28;20117;-84
2022/04/30 04:23:22;;;;;;;16.23;9.63;;;;;;;3.74;86.48;102597.56;4985613;28;20034;-85
2022/04/30 04:26:00;;;;;;;16.90;9.35;;;;;;;3.67;86.88;102587.84;4986873;28;20058;-84
2022/04/30 04:28:29;;;;;;;13.95;9.10;;;;;;;3.73;86.67;102605.47;4978756;28;20384;-85
2022/04/30 04:30:56;;;;;;;16.23;10.32;;;;;;;3.74;86.78;102604.56;4983066;28;20500;-85
2022/04/30 04:33:21;;;;;;;18.33;9.98;;;;;;;3.74;86.48;102605.47;4987377;28;20027;-85
2022/04/30 04:35:46;;;;;;;15.30;10.10;;;;;;;3.78;86.70;102605.47;4982398;28;20032;-84
2022/04/30 04:38:12;;;;;;;15.90;9.15;;;;;;;3.82;86.42;102607.25;4990821;28;20050;-85
2022/04/30 04:40:37;;;;;;;17.25;10.05;;;;;;;3.83;86.55;102612.53;4985207;28;20038;-85
2022/04/30 04:43:02;;;;;;;18.92;11.40;;;;;;;3.86;86.51;102607.28;4982683;28;20062;-84
2022/04/30 04:45:28;;;;;;;15.20;9.18;;;;;;;3.88;86.47;102604.63;4981506;28;20294;-85
2022/04/30 04:47:54;;;;;;;18.15;9.65;;;;;;;3.92;86.32;102615.19;4989841;28;20034;-85
2022/04/30 04:50:22;;;;;;;18.90;9.98;;;;;;;3.95;86.19;102616.97;4984658;28;20034;-85
2022/04/30 04:52:48;;;;;;;13.60;9.65;;;;;;;3.92;85.89;102599.38;4988073;28;20165;-85
2022/04/30 04:55:14;;;;;;;18.58;9.98;;;;;;;3.99;85.93;102611.72;4988523;28;21829;-85
2022/04/30 04:57:40;;;;;;;19.42;10.93;;;;;;;3.98;86.31;102622.28;4988882;28;20113;-84
2022/04/30 05:00:07;;;;;;;19.38;9.73;;;;;;;4.03;86.23;102632.84;4981079;28;20152;-84
2022/04/30 05:02:32;;;;;;;16.83;9.63;;;;;;;3.99;86.51;102627.53;4984685;28;20034;-85
2022/04/30 05:04:57;;;;;;;19.08;10.38;;;;;;;3.92;87.01;102625.72;4983124;28;20025;-85
2022/04/30 05:07:25;;;;;;;21.90;11.73;;;;;;;3.86;87.03;102620.44;4975697;28;20070;-84
2022/04/30 05:09:50;;;;;;;20.58;10.02;;;;;;;3.92;87.34;102636.28;4982532;28;20061;-84
2022/04/30 05:12:15;;;;;;;16.70;11.40;;;;;;;3.93;87.21;102637.16;4962848;28;20067;-84
2022/04/30 05:14:41;;;;;;;17.83;10.90;;;;;;;3.95;87.21;102631.03;4990225;28;20034;-84
2022/04/30 05:17:09;;;;;;;19.48;10.75;;;;;;;3.99;87.23;102631.94;4989893;28;20022;-84
2022/04/30 05:19:35;;;;;;;17.58;10.27;;;;;;;4.02;87.17;102628.44;4980166;28;20093;-85
2022/04/30 05:22:00;;;;;;;19.38;11.48;;;;;;;4.08;87.54;102628.47;4979528;28;20451;-86
2022/04/30 05:24:26;;;;;;;19.95;11.43;;;;;;;4.18;87.63;102633.78;4983445;28;20037;-87
2022/04/30 05:26:51;;;;;;;20.17;11.27;;;;;;;4.29;87.50;102628.53;4982614;28;20045;-88
2022/04/30 05:29:17;;;;;;;22.58;11.32;;;;;;;4.46;87.05;102634.75;4977164;28;20031;-85
2022/04/30 05:31:43;;;;;;;18.58;10.90;;;;;;;4.57;86.84;102633.91;4983090;28;20026;-88
2022/04/30 05:34:09;;;;;;;20.30;11.57;;;;;;;4.74;86.82;102629.56;4982321;28;20401;-85
2022/04/30 05:36:34;;;;;;;17.52;11.05;;;;;;;4.90;86.38;102635.75;4979377;28;20105;-85
2022/04/30 05:39:00;;;;;;;21.13;11.75;;;;;;;5.00;86.02;102626.94;4981612;28;20448;-85
2022/04/30 05:41:26;;;;;;;21.40;11.20;;;;;;;5.17;85.86;102632.22;4978235;28;20035;-85
2022/04/30 05:43:52;;;;;;;15.82;10.75;;;;;;;5.30;84.80;102631.34;4955248;28;20061;-85
2022/04/30 05:46:17;;;;;;;19.33;11.65;;;;;;;5.45;84.28;102636.63;4978575;28;20046;-85
2022/04/30 05:48:43;;;;;;;18.00;10.93;;;;;;;5.55;83.55;102636.59;4975973;28;20031;-85
2022/04/30 05:51:08;;;;;;;15.75;11.27;;;;;;;5.69;83.48;102637.47;4983182;28;20026;-85
2022/04/30 05:53:33;;;;;;;18.50;11.23;;;;;;;5.84;83.08;102640.06;4983255;28;20030;-85
2022/04/30 05:55:58;;;;;;;18.42;11.15;;;;;;;5.97;82.37;102636.53;4987970;28;20381;-85
2022/04/30 05:58:24;;;;;;;19.58;11.18;;;;;;;6.19;81.92;102647.94;4986903;28;20038;-86
2022/04/30 06:00:49;;;;;;;16.38;10.70;;;;;;;6.34;81.24;102646.09;4983728;28;20758;-86
2022/04/30 06:03:15;;;;;;;13.70;9.35;;;;;;;6.49;80.71;102635.44;4979454;28;20487;-85
2022/04/30 06:05:40;;;;;;;17.67;10.65;;;;;;;6.59;79.60;102633.63;4985620;28;20278;-85
2022/04/30 06:08:06;;;;;;;13.32;10.32;;;;;;;6.68;79.21;102644.16;4982748;28;20030;-85
2022/04/30 06:10:32;;;;;;;13.60;9.68;;;;;;;6.78;78.83;102652.94;4971706;28;20026;-87
2022/04/30 06:12:57;;;;;;;16.48;10.82;;;;;;;6.78;78.34;102645.88;4974073;28;20042;-85
2022/04/30 06:15:23;;;;;;;17.85;10.63;;;;;;;6.87;78.56;102637.84;4987494;28;20034;-85
2022/04/30 06:17:48;;;;;;;17.65;10.50;;;;;;;7.08;77.76;102641.25;4980137;28;20026;-85
2022/04/30 06:20:13;;;;;;;15.05;9.98;;;;;;;7.15;77.27;102653.56;4988781;28;20388;-85
2022/04/30 06:22:38;;;;;;;15.25;10.75;;;;;;;7.20;77.08;102642.03;4977739;28;20054;-85
2022/04/30 06:25:04;;;;;;;18.58;10.63;;;;;;;7.39;76.26;102647.16;4984733;28;20026;-85
2022/04/30 06:27:30;;;;;;;15.88;10.65;;;;;;;7.60;75.88;102641.66;4988958;28;20109;-85
2022/04/30 06:29:55;;;;;;;15.82;9.63;;;;;;;7.71;74.81;102647.72;4988551;28;20026;-83
2022/04/30 06:32:20;;;;;;;17.08;10.25;;;;;;;7.80;74.27;102646.75;4987128;28;20432;-82
2022/04/30 06:34:46;;;;;;;16.92;9.63;;;;;;;7.90;73.92;102651.09;4987869;28;20101;-83
2022/04/30 06:37:11;;;;;;;16.70;10.20;;;;;;;8.09;74.20;102651.75;4981522;28;20477;-83
2022/04/30 06:39:36;;;;;;;12.75;9.10;;;;;;;8.24;73.01;102650.69;4988505;28;20085;-84
2022/04/30 06:42:02;;;;;;;20.52;11.80;;;;;;;8.43;71.91;102652.22;4980178;28;20493;-83
2022/04/30 06:44:27;;;;;;;14.93;10.15;;;;;;;8.57;71.66;102649.41;4977613;28;20027;-83
2022/04/30 06:46:52;;;;;;;16.27;10.07;;;;;;;8.70;71.60;102648.34;4987968;28;20034;-83
2022/04/30 06:49:17;;;;;;;11.98;9.20;;;;;;;8.88;70.88;102647.19;4981086;28;20557;-83
2022/04/30 06:51:43;;;;;;;11.18;8.95;;;;;;;9.02;69.99;102639.00;4983126;28;20085;-83
2022/04/30 06:57:07;;;;;;;13.88;9.13;;;;;;;9.13;68.53;102639.69;4984445;28;20049;-83
2022/04/30 06:59:36;;;;;;;12.65;9.07;;;;;;;9.30;68.01;102642.09;4985158;28;20030;-83
2022/04/30 07:02:06;;;;;;;14.20;8.30;;;;;;;9.48;67.62;102648.84;4992118;28;20041;-83
2022/04/30 07:04:32;;;;;;;11.40;8.43;;;;;;;9.59;66.94;102643.34;4994284;28;20038;-84
2022/04/30 07:06:58;;;;;;;9.68;7.38;;;;;;;9.81;65.57;102644.72;4986899;28;20468;-82
2022/04/30 07:09:24;;;;;;;14.85;8.10;;;;;;;10.22;65.10;102643.03;4986491;28;20062;-83
2022/04/30 07:11:49;;;;;;;13.23;7.90;;;;;;;10.59;62.51;102644.94;4982443;28;20132;-83
2022/04/30 07:14:14;;;;;;;11.80;8.00;;;;;;;10.78;61.63;102650.69;4981258;28;20026;-82
2022/04/30 07:16:40;;;;;;;11.70;7.60;;;;;;;11.10;60.89;102648.16;4980935;28;20057;-83
2022/04/30 07:19:05;;;;;;;10.80;7.00;;;;;;;11.20;59.33;102648.81;4986165;28;20535;-83
2022/04/30 07:21:31;;;;;;;11.40;6.53;;;;;;;11.23;58.87;102657.59;4984239;28;20506;-83
2022/04/30 07:23:57;;;;;;;12.18;6.53;;;;;;;11.08;59.22;102642.00;4981912;28;20090;-83
2022/04/30 07:26:23;;;;;;;13.55;7.38;;;;;;;11.22;59.38;102641.66;4986171;28;20508;-82
2022/04/30 07:28:48;;;;;;;11.32;6.93;;;;;;;11.76;59.09;102643.81;4981188;28;20026;-83
2022/04/30 07:31:13;;;;;;;10.80;6.82;;;;;;;12.06;57.34;102642.09;4985974;28;20441;-83
2022/04/30 07:33:39;;;;;;;10.52;6.65;;;;;;;12.51;55.92;102638.16;4986406;28;20030;-82
2022/04/30 07:36:04;;;;;;;9.88;6.35;;;;;;;12.81;53.92;102647.00;4982409;28;20072;-82
2022/04/30 07:38:30;;;;;;;10.52;6.80;;;;;;;13.24;53.50;102634.94;4986094;28;20040;-83
2022/04/30 07:40:56;;;;;;;11.85;8.43;;;;;;;13.73;51.96;102638.59;4967049;28;20070;-82
2022/04/30 07:43:21;;;;;;;10.38;7.22;;;;;;;14.09;50.18;102639.94;4982442;28;20389;-83
2022/04/30 07:45:46;;;;;;;12.10;6.68;;;;;;;14.58;49.69;102634.53;4982005;28;20084;-83
2022/04/30 07:48:12;;;;;;;10.63;6.47;;;;;;;14.86;48.06;102629.84;4986491;28;20026;-83
2022/04/30 07:50:37;;;;;;;8.45;6.22;;;;;;;15.31;47.68;102644.97;4968595;28;20605;-83
2022/04/30 07:53:06;;;;;;;8.65;6.30;;;;;;;15.21;46.31;102640.91;4976702;28;20204;-83
2022/04/30 07:55:32;;;;;;;10.65;6.15;;;;;;;15.08;46.45;102628.97;4984242;28;20039;-83
2022/04/30 07:57:58;;;;;;;7.53;5.60;;;;;;;15.32;44.58;102630.63;4978458;28;20034;-83
2022/04/30 08:00:26;;;;;;;8.63;5.88;;;;;;;15.59;44.78;102625.88;4991622;28;20042;-83
2022/04/30 08:02:56;;;;;;;9.18;6.10;;;;;;;15.69;42.86;102631.75;4978166;28;20148;-83
2022/04/30 08:05:24;;;;;;;8.40;6.10;;;;;;;16.00;43.15;102628.56;4976991;28;20049;-83
2022/04/30 08:07:50;;;;;;;7.00;5.72;;;;;;;16.30;42.17;102634.34;4983717;28;20496;-83
2022/04/30 08:10:16;;;;;;;8.77;5.63;;;;;;;16.68;40.29;102623.59;4986551;28;20026;-83
2022/04/30 08:12:41;;;;;;;8.10;6.28;;;;;;;17.37;40.08;102625.56;4979424;28;20117;-83
2022/04/30 08:15:07;;;;;;;8.75;6.43;;;;;;;17.90;39.98;102628.19;4962761;28;20066;-83
2022/04/30 08:17:32;;;;;;;8.15;5.72;;;;;;;18.14;38.58;102630.50;4987621;28;20353;-83
2022/04/30 08:19:57;;;;;;;7.78;6.20;;;;;;;18.41;37.17;102629.00;4986748;28;20335;-83
2022/04/30 08:22:23;;;;;;;7.95;5.47;;;;;;;18.63;37.01;102611.59;4982690;28;20043;-83
2022/04/30 08:24:48;;;;;;;10.15;6.20;;;;;;;18.62;37.17;102631.44;4969349;28;20033;-84
2022/04/30 08:27:13;;;;;;;6.57;5.25;;;;;;;18.47;36.41;102624.19;4987558;28;20660;-83
2022/04/30 08:29:39;;;;;;;8.10;6.25;;;;;;;18.27;37.46;102626.19;4979924;28;20023;-83
2022/04/30 08:32:04;;;;;;;12.50;6.25;;;;;;;18.24;37.63;102620.97;4963698;28;20039;-84
2022/04/30 08:34:30;;;;;;;8.18;6.18;;;;;;;18.25;37.91;102625.41;4982492;28;20073;-83
2022/04/30 08:36:56;;;;;;;6.55;5.55;;;;;;;18.39;37.54;102622.81;4987194;28;20464;-83
2022/04/30 08:39:22;;;;;;;8.93;5.47;;;;;;;18.13;37.68;102623.38;4987404;28;20031;-84
2022/04/30 08:41:47;;;;;;;8.90;5.63;;;;;;;18.30;37.46;102623.31;4978948;28;20026;-84
2022/04/30 08:44:17;;;;;;;10.02;6.82;;;;;;;18.84;36.89;102609.53;4987520;28;20031;-84
2022/04/30 08:46:43;;;;;;;6.60;5.88;;;;;;;19.17;35.37;102602.16;4976512;28;20027;-83
2022/04/30 08:49:09;;;;;;;9.15;5.82;;;;;;;17.88;37.79;102622.00;4983564;28;20081;-84
2022/04/30 08:51:35;;;;;;;8.07;5.80;;;;;;;17.59;38.66;102618.13;4983692;28;20081;-83
2022/04/30 08:54:00;;;;;;;8.55;5.97;;;;;;;19.14;36.95;102610.47;4988065;28;20027;-84
2022/04/30 08:56:26;;;;;;;6.35;5.75;;;;;;;19.74;35.06;102604.16;4988409;28;20027;-84
2022/04/30 08:59:05;;;;;;;5.43;4.90;;;;;;;19.87;34.70;102594.34;4985210;28;20035;-85
2022/04/30 09:01:43;;;;;;;7.03;4.78;;;;;;;20.21;33.81;102600.31;4987837;28;20037;-85
2022/04/30 09:04:08;;;;;;;8.98;5.28;;;;;;;20.14;33.28;102601.66;4978798;28;20023;-84
2022/04/30 09:06:34;;;;;;;6.45;4.75;;;;;;;19.52;33.49;102598.28;4990355;28;20054;-84
2022/04/30 09:08:59;;;;;;;7.75;5.45;;;;;;;19.56;33.59;102594.44;4990733;28;20494;-83
2022/04/30 09:11:28;;;;;;;7.32;4.60;;;;;;;20.12;33.29;102596.38;4987019;28;20533;-84
2022/04/30 09:13:53;;;;;;;7.93;4.60;;;;;;;19.71;32.40;102595.38;4984313;28;20042;-84
2022/04/30 09:16:24;;;;;;;7.10;5.07;;;;;;;18.24;35.45;102588.63;4990646;28;20021;-83
2022/04/30 09:18:51;;;;;;;8.35;5.43;;;;;;;16.85;37.26;102586.03;4989738;28;20098;-84
2022/04/30 09:21:17;;;;;;;8.32;4.60;;;;;;;16.02;39.17;102596.28;4979734;28;20029;-84
2022/04/30 09:23:44;;;;;;;9.15;4.72;;;;;;;15.23;40.59;102598.81;4986652;28;20274;-84
2022/04/30 09:26:10;;;;;;;5.03;4.50;;;;;;;14.81;41.61;102593.44;4984543;28;20030;-84
2022/04/30 09:28:38;;;;;;;9.55;5.38;;;;;;;14.63;42.36;102584.31;4980795;28;20495;-84
2022/04/30 09:31:07;;;;;;;10.15;5.50;;;;;;;14.67;42.72;102591.28;4977321;28;20031;-83
2022/04/30 09:33:35;;;;;;;7.63;4.68;;;;;;;14.45;42.29;102586.75;4985655;28;20511;-84
2022/04/30 09:38:52;;;;;;;7.72;5.47;;;;;;;13.53;45.52;102588.47;4989769;28;20038;-82
2022/04/30 09:41:26;;;;;;;6.82;5.18;;;;;;;13.08;47.47;102597.09;4985037;28;20403;-83
2022/04/30 09:44:05;;;;;;;;;;;;;;;13.02;46.70;102600.00;4972174;28;20388;-82
2022/04/30 09:46:33;;;;;;;8.85;5.63;;;;;;;12.49;50.00;102592.75;4989780;28;19945;-82
2022/04/30 09:54:27;;;;;;;8.82;5.68;;;;;;;12.26;51.44;102588.16;4986370;28;20095;-83
2022/04/30 09:56:55;;;;;;;12.57;6.90;;;;;;;12.37;51.23;102583.38;4987147;28;20026;-83
2022/04/30 09:59:23;;;;;;;9.43;6.20;;;;;;;12.32;51.30;102585.28;4989659;28;20039;-85
2022/04/30 10:01:48;;;;;;;8.25;5.63;;;;;;;12.53;51.14;102582.88;4985562;28;20468;-84
2022/04/30 10:04:16;;;;;;;8.65;6.13;;;;;;;12.57;50.55;102592.53;4985998;28;20031;-83
2022/04/30 10:06:43;;;;;;;8.15;6.47;;;;;;;12.41;51.20;102578.78;4987582;28;20112;-84
2022/04/30 10:09:14;;;;;;;8.10;5.88;;;;;;;12.35;51.37;102579.84;4988756;28;20399;-84
2022/04/30 10:12:02;;;;;;;11.00;6.15;;;;;;;12.49;50.43;102581.22;4976521;28;20134;-85
2022/04/30 10:14:48;;;;;;;8.82;6.13;;;;;;;12.42;50.15;102576.06;4985045;28;20529;-85
2022/04/30 10:17:16;;;;;;;6.28;5.60;;;;;;;12.47;50.21;102573.25;4984727;28;20129;-83
2022/04/30 10:20:07;;;;;;;9.68;5.88;;;;;;;12.68;49.56;102569.03;4979676;28;20022;-85
2022/04/30 10:22:33;;;;;;;9.73;6.50;;;;;;;12.81;49.25;102566.84;4986454;28;20081;-87
2022/04/30 10:24:59;;;;;;;12.85;6.45;;;;;;;13.09;49.09;102564.13;4975602;28;20035;-88
2022/04/30 10:27:38;;;;;;;7.70;6.20;;;;;;;13.20;48.21;102560.13;4981176;28;20082;-85
2022/04/30 10:30:05;;;;;;;8.73;7.18;;;;;;;13.39;48.06;102562.22;4983072;28;20118;-84
2022/04/30 10:32:35;;;;;;;8.48;6.50;;;;;;;13.70;47.33;102570.00;4984603;28;20034;-84
2022/04/30 10:35:02;;;;;;;9.60;6.57;;;;;;;13.87;46.53;102566.69;4987923;28;20026;-85
2022/04/30 10:37:32;;;;;;;9.20;6.50;;;;;;;13.78;45.95;102551.84;4982794;28;20068;-85
2022/04/30 10:40:04;;;;;;;7.65;5.70;;;;;;;13.94;46.09;102560.19;4982705;28;20071;-85
2022/04/30 10:42:38;;;;;;;6.15;5.40;;;;;;;13.63;45.16;102564.00;4983672;28;20042;-84
2022/04/30 10:45:04;;;;;;;8.55;5.45;;;;;;;13.31;45.50;102557.13;4983079;28;20070;-84
2022/04/30 10:47:30;;;;;;;7.47;5.47;;;;;;;13.29;45.97;102553.63;4989092;28;20507;-84
2022/04/30 10:49:55;;;;;;;6.68;5.95;;;;;;;13.20;45.60;102549.44;4980554;28;20022;-85
2022/04/30 10:52:24;;;;;;;8.32;6.00;;;;;;;13.41;45.63;102547.84;4978717;28;20403;-84
2022/04/30 10:54:50;;;;;;;7.03;5.63;;;;;;;13.87;45.32;102540.81;4984996;28;20049;-84
2022/04/30 10:57:16;;;;;;;7.95;5.97;;;;;;;14.34;44.22;102535.44;4977543;28;20491;-85
2022/04/30 10:59:41;;;;;;;7.25;5.20;;;;;;;14.72;43.15;102530.38;4986711;28;20026;-85
2022/04/30 11:02:10;;;;;;;6.88;5.00;;;;;;;15.41;41.73;102530.06;4986315;28;20026;-84
2022/04/30 11:04:36;;;;;;;9.05;5.05;;;;;;;15.88;39.57;102519.91;4984020;28;20058;-84
2022/04/30 11:07:02;;;;;;;6.10;4.90;;;;;;;16.27;39.62;102521.66;4988762;28;20412;-85
2022/04/30 11:09:27;;;;;;;7.20;5.45;;;;;;;16.93;37.64;102526.50;4952821;28;20451;-85
2022/04/30 11:11:53;;;;;;;6.63;4.50;;;;;;;17.26;36.15;102515.78;4974148;28;20030;-84
2022/04/30 11:14:19;;;;;;;5.97;4.50;;;;;;;17.42;36.09;102519.41;4977505;28;20030;-83
2022/04/30 11:16:47;;;;;;;5.15;3.95;;;;;;;17.22;35.07;102516.88;4979460;28;20042;-85
2022/04/30 11:19:14;;;;;;;3.92;3.20;;;;;;;16.96;34.34;102520.06;4979683;28;20026;-83
2022/04/30 11:21:47;;;;;;;4.88;2.80;;;;;;;16.81;34.84;102522.59;4968076;28;20436;-83
2022/04/30 11:24:23;;;;;;;5.60;2.90;;;;;;;16.56;34.91;102511.28;4978591;28;20503;-87
2022/04/30 11:26:58;;;;;;;4.43;2.55;;;;;;;16.78;34.12;102511.97;4987154;28;20496;-87
2022/04/30 11:29:24;;;;;;;3.13;2.83;;;;;;;17.33;33.21;102506.44;4985188;28;20045;-87
2022/04/30 11:31:51;;;;;;;4.70;3.33;;;;;;;20.07;30.18;102493.06;4978309;28;20350;-88
2022/04/30 11:34:17;;;;;;;4.25;3.15;;;;;;;23.49;25.67;102485.59;4985911;28;20068;-86
2022/04/30 11:36:48;;;;;;;5.82;3.50;;;;;;;25.82;22.97;102487.72;4960056;28;20101;-86
2022/04/30 11:39:15;;;;;;;4.45;3.40;;;;;;;24.91;23.05;102480.25;4976110;28;20039;-87
2022/04/30 11:41:43;;;;;;;6.15;3.90;;;;;;;23.36;24.31;102492.97;4975272;28;20387;-88
2022/04/30 11:44:09;;;;;;;8.07;3.90;;;;;;;21.30;26.03;102492.94;4982195;28;20504;-87
2022/04/30 11:46:39;;;;;;;5.35;3.33;;;;;;;22.47;25.78;102479.97;4987547;28;20506;-86
2022/04/30 11:49:19;;;;;;;3.75;3.08;;;;;;;24.79;23.21;102479.47;4973759;28;20455;-86
2022/04/30 11:51:46;;;;;;;3.85;3.40;;;;;;;26.29;20.53;102469.75;4977209;28;20034;-86
2022/04/30 11:54:15;;;;;;;5.85;3.40;;;;;;;27.00;19.42;102457.66;4981563;28;20388;-85
2022/04/30 11:56:42;;;;;;;5.53;3.20;;;;;;;26.22;20.20;102463.13;4987051;28;20026;-85